Hjaltland — VSTY8 — position and weather

sailwx.info

Track history (hours):
 
Tides and Currents Weather Stations Pressure Air Temp Water Temp Dewpoint Dewpoint Depression Visibility Wind Speed Wind Dir Waves Ship Positions

Hjaltland

Operator: NorthLink Orkey & Shetland Ferries Ltd

Last reported at 2020-Aug-08 23:30 UTC. Time now 2020-Aug-09 05:33 UTC.
Position N 59°00' W 002°42'.

Type: Ship. MMSI: 235450000.

Date/timePositionNaut miles runAvg speedWind from/ knotsBaromVisibWave heightAir tempDewpointWater temp
2020-Aug-08 23:30N 59°00' W 002°42'4 2.2
2020-Aug-08 21:30N 59°01' W 002°51'8822.1
2020-Aug-08 17:31N 57°39' W 001°44'3310.7
2020-Aug-08 14:28N 57°09' W 002°05'0 0.0
2020-Aug-08 12:58N 57°09' W 002°05'0 0.0
2020-Aug-08 11:28N 57°09' W 002°05'0 0.0
2020-Aug-08 10:58N 57°09' W 002°05'0 0.0
2020-Aug-08 09:28N 57°09' W 002°05'0 0.0
2020-Aug-08 08:58N 57°09' W 002°05'0 0.0
2020-Aug-08 08:00N 57°09' W 002°05'8 2.6
2020-Aug-08 05:01N 57°14' W 001°55'1615.7
2020-Aug-08 04:00N 57°27' W 001°38'1121.2
2020-Aug-08 03:31N 57°37' W 001°39'8724.1
2020-Aug-07 23:55N 58°58' W 002°40'10 4.5
2020-Aug-07 21:42N 58°60' W 002°58'16 0.8
2020-Aug-07 00:31N 59°04' W 002°27'1414.3
2020-Aug-06 23:30N 59°01' W 002°55'2 1.1
2020-Aug-06 21:30N 59°01' W 002°50'3519.6
2020-Aug-06 19:45N 58°31' W 002°18'8222.1
2020-Aug-06 16:00N 57°09' W 002°04'1 0.4
2020-Aug-06 13:30N 57°09' W 002°05'0 0.0
2020-Aug-06 06:00N 57°09' W 002°05'1 2.0
2020-Aug-06 05:31N 57°09' W 002°04'1616.3
2020-Aug-06 04:31N 57°21' W 001°45'816.1
2020-Aug-06 04:01N 57°29' W 001°39'96 3.5
2020-Aug-05 00:30N 59°01' W 002°33'13 5.8
2020-Aug-04 22:18N 58°60' W 002°58'2015.3
2020-Aug-04 21:00N 58°48' W 002°28'2421.0
2020-Aug-04 19:53N 58°26' W 002°14'6221.6
2020-Aug-04 17:01N 57°26' W 001°44'21 3.4
2020-Aug-04 11:00N 57°09' W 002°05'0 0.0
2020-Aug-04 09:30N 57°09' W 002°05'0 0.0
2020-Aug-04 09:00N 57°09' W 002°05'0 0.0
2020-Aug-04 08:30N 57°09' W 002°05'9 2.4
2020-Aug-04 05:00N 57°15' W 001°54'1616.4
2020-Aug-04 04:00N 57°28' W 001°37'1817.6
2020-Aug-04 03:00N 57°45' W 001°45'80 3.0
2020-Aug-03 00:00N 59°02' W 002°30'8513.0
2020-Aug-02 17:30N 57°41' W 001°41'2424.2
2020-Aug-02 16:31N 57°18' W 001°53'11 3.7
2020-Aug-02 13:28N 57°09' W 002°05'0 0.0
2020-Aug-02 12:58N 57°09' W 002°05'0 0.0
2020-Aug-02 12:28N 57°09' W 002°05'0 0.0
2020-Aug-02 10:29N 57°09' W 002°05'0 0.0
2020-Aug-02 09:59N 57°09' W 002°05'0 0.0
2020-Aug-02 06:29N 57°09' W 002°05'9 6.1
2020-Aug-02 05:00N 57°15' W 001°54'713.4
2020-Aug-02 04:30N 57°21' W 001°47'917.3
2020-Aug-02 04:00N 57°29' W 001°43'22 0.7
2020-Jul-31 21:30N 57°51' W 001°36'4512.8
2020-Jul-31 18:00N 57°09' W 002°04'1 0.4
2020-Jul-31 15:28N 57°09' W 002°05'0 0.0
2020-Jul-31 11:58N 57°09' W 002°05'0 0.0
2020-Jul-31 09:58N 57°09' W 002°05'0 0.0
2020-Jul-31 06:28N 57°09' W 002°05'0 0.0
2020-Jul-31 05:58N 57°09' W 002°05'8 7.9
2020-Jul-31 05:00N 57°14' W 001°55'1514.7
2020-Jul-31 04:00N 57°26' W 001°40'  
Track history (hours):
 
Tides and Currents Weather Stations Pressure Air Temp Water Temp Dewpoint Dewpoint Depression Visibility Wind Speed Wind Dir Waves Ship Positions

Hjaltland

Operator: NorthLink Orkey & Shetland Ferries Ltd

Last reported at 2020-Aug-08 23:30 UTC. Time now 2020-Aug-09 05:33 UTC.
Position N 59°00' W 002°42'.

Type: Ship. MMSI: 235450000.

Date/timePositionNaut miles runAvg speedWind from/ knotsBaromVisibWave heightAir tempDewpointWater temp
2020-Aug-08 23:30N 59°00' W 002°42'4 2.2
2020-Aug-08 21:30N 59°01' W 002°51'8822.1
2020-Aug-08 17:31N 57°39' W 001°44'3310.7
2020-Aug-08 14:28N 57°09' W 002°05'0 0.0
2020-Aug-08 12:58N 57°09' W 002°05'0 0.0
2020-Aug-08 11:28N 57°09' W 002°05'0 0.0
2020-Aug-08 10:58N 57°09' W 002°05'0 0.0
2020-Aug-08 09:28N 57°09' W 002°05'0 0.0
2020-Aug-08 08:58N 57°09' W 002°05'0 0.0
2020-Aug-08 08:00N 57°09' W 002°05'8 2.6
2020-Aug-08 05:01N 57°14' W 001°55'1615.7
2020-Aug-08 04:00N 57°27' W 001°38'1121.2
2020-Aug-08 03:31N 57°37' W 001°39'8724.1
2020-Aug-07 23:55N 58°58' W 002°40'10 4.5
2020-Aug-07 21:42N 58°60' W 002°58'16 0.8
2020-Aug-07 00:31N 59°04' W 002°27'1414.3
2020-Aug-06 23:30N 59°01' W 002°55'2 1.1
2020-Aug-06 21:30N 59°01' W 002°50'3519.6
2020-Aug-06 19:45N 58°31' W 002°18'8222.1
2020-Aug-06 16:00N 57°09' W 002°04'1 0.4
2020-Aug-06 13:30N 57°09' W 002°05'0 0.0
2020-Aug-06 06:00N 57°09' W 002°05'1 2.0
2020-Aug-06 05:31N 57°09' W 002°04'1616.3
2020-Aug-06 04:31N 57°21' W 001°45'816.1
2020-Aug-06 04:01N 57°29' W 001°39'96 3.5
2020-Aug-05 00:30N 59°01' W 002°33'13 5.8
2020-Aug-04 22:18N 58°60' W 002°58'2015.3
2020-Aug-04 21:00N 58°48' W 002°28'2421.0
2020-Aug-04 19:53N 58°26' W 002°14'6221.6
2020-Aug-04 17:01N 57°26' W 001°44'21 3.4
2020-Aug-04 11:00N 57°09' W 002°05'0 0.0
2020-Aug-04 09:30N 57°09' W 002°05'0 0.0
2020-Aug-04 09:00N 57°09' W 002°05'0 0.0
2020-Aug-04 08:30N 57°09' W 002°05'9 2.4
2020-Aug-04 05:00N 57°15' W 001°54'1616.4
2020-Aug-04 04:00N 57°28' W 001°37'1817.6
2020-Aug-04 03:00N 57°45' W 001°45'80 3.0
2020-Aug-03 00:00N 59°02' W 002°30'8513.0
2020-Aug-02 17:30N 57°41' W 001°41'2424.2
2020-Aug-02 16:31N 57°18' W 001°53'11 3.7
2020-Aug-02 13:28N 57°09' W 002°05'0 0.0
2020-Aug-02 12:58N 57°09' W 002°05'0 0.0
2020-Aug-02 12:28N 57°09' W 002°05'0 0.0
2020-Aug-02 10:29N 57°09' W 002°05'0 0.0
2020-Aug-02 09:59N 57°09' W 002°05'0 0.0
2020-Aug-02 06:29N 57°09' W 002°05'9 6.1
2020-Aug-02 05:00N 57°15' W 001°54'713.4
2020-Aug-02 04:30N 57°21' W 001°47'917.3
2020-Aug-02 04:00N 57°29' W 001°43'22 0.7
2020-Jul-31 21:30N 57°51' W 001°36'4512.8
2020-Jul-31 18:00N 57°09' W 002°04'1 0.4
2020-Jul-31 15:28N 57°09' W 002°05'0 0.0
2020-Jul-31 11:58N 57°09' W 002°05'0 0.0
2020-Jul-31 09:58N 57°09' W 002°05'0 0.0
2020-Jul-31 06:28N 57°09' W 002°05'0 0.0
2020-Jul-31 05:58N 57°09' W 002°05'8 7.9
2020-Jul-31 05:00N 57°14' W 001°55'1514.7
2020-Jul-31 04:00N 57°26' W 001°40'  

Dump ship's entire track history